sensor_id;sensor_type;location;lat;lon;timestamp;P1;durP1;ratioP1;P2;durP2;ratioP2
1679;SDS011;838;51.794;12.258;2022-07-22T00:01:42;4.53;;;3.40;;
1679;SDS011;838;51.794;12.258;2022-07-22T00:04:08;5.70;;;3.50;;
1679;SDS011;838;51.794;12.258;2022-07-22T00:06:33;5.23;;;3.40;;
1679;SDS011;838;51.794;12.258;2022-07-22T00:09:02;4.80;;;3.37;;
1679;SDS011;838;51.794;12.258;2022-07-22T00:11:28;3.97;;;3.10;;
1679;SDS011;838;51.794;12.258;2022-07-22T00:13:54;4.80;;;3.50;;
1679;SDS011;838;51.794;12.258;2022-07-22T00:16:20;3.60;;;2.47;;
1679;SDS011;838;51.794;12.258;2022-07-22T00:18:46;3.60;;;2.60;;
1679;SDS011;838;51.794;12.258;2022-07-22T00:21:12;4.77;;;3.37;;
1679;SDS011;838;51.794;12.258;2022-07-22T00:23:37;3.77;;;3.00;;
1679;SDS011;838;51.794;12.258;2022-07-22T00:26:03;5.60;;;2.93;;
1679;SDS011;838;51.794;12.258;2022-07-22T00:28:32;5.27;;;2.80;;
1679;SDS011;838;51.794;12.258;2022-07-22T00:30:58;4.53;;;3.07;;
1679;SDS011;838;51.794;12.258;2022-07-22T00:33:24;5.70;;;3.73;;
1679;SDS011;838;51.794;12.258;2022-07-22T00:35:49;4.67;;;3.40;;
1679;SDS011;838;51.794;12.258;2022-07-22T00:38:15;5.03;;;3.37;;
1679;SDS011;838;51.794;12.258;2022-07-22T00:40:41;5.03;;;3.00;;
1679;SDS011;838;51.794;12.258;2022-07-22T00:43:07;6.73;;;3.70;;
1679;SDS011;838;51.794;12.258;2022-07-22T00:45:33;5.03;;;3.70;;
1679;SDS011;838;51.794;12.258;2022-07-22T00:47:58;4.47;;;3.47;;
1679;SDS011;838;51.794;12.258;2022-07-22T00:50:24;6.90;;;3.47;;
1679;SDS011;838;51.794;12.258;2022-07-22T00:52:53;6.90;;;3.13;;
1679;SDS011;838;51.794;12.258;2022-07-22T00:55:19;6.50;;;3.43;;
1679;SDS011;838;51.794;12.258;2022-07-22T00:57:45;4.20;;;3.17;;
1679;SDS011;838;51.794;12.258;2022-07-22T01:00:12;4.23;;;2.80;;
1679;SDS011;838;51.794;12.258;2022-07-22T01:02:41;4.33;;;3.07;;
1679;SDS011;838;51.794;12.258;2022-07-22T01:05:07;5.20;;;3.53;;
1679;SDS011;838;51.794;12.258;2022-07-22T01:07:33;5.27;;;3.80;;
1679;SDS011;838;51.794;12.258;2022-07-22T01:09:59;4.93;;;3.73;;
1679;SDS011;838;51.794;12.258;2022-07-22T01:12:26;5.17;;;3.80;;
1679;SDS011;838;51.794;12.258;2022-07-22T01:14:52;6.10;;;3.70;;
1679;SDS011;838;51.794;12.258;2022-07-22T01:17:18;4.63;;;3.23;;
1679;SDS011;838;51.794;12.258;2022-07-22T01:19:44;6.17;;;3.63;;
1679;SDS011;838;51.794;12.258;2022-07-22T01:22:10;5.33;;;3.27;;
1679;SDS011;838;51.794;12.258;2022-07-22T01:24:36;4.77;;;3.73;;
1679;SDS011;838;51.794;12.258;2022-07-22T01:27:04;5.60;;;3.70;;
1679;SDS011;838;51.794;12.258;2022-07-22T01:29:30;7.53;;;3.30;;
1679;SDS011;838;51.794;12.258;2022-07-22T01:31:56;3.97;;;3.30;;
1679;SDS011;838;51.794;12.258;2022-07-22T01:34:22;4.90;;;4.03;;
1679;SDS011;838;51.794;12.258;2022-07-22T01:36:48;4.33;;;3.87;;
1679;SDS011;838;51.794;12.258;2022-07-22T01:39:14;4.63;;;3.67;;
1679;SDS011;838;51.794;12.258;2022-07-22T01:41:40;8.53;;;4.20;;
1679;SDS011;838;51.794;12.258;2022-07-22T01:44:06;6.13;;;4.13;;
1679;SDS011;838;51.794;12.258;2022-07-22T01:46:32;11.80;;;4.83;;
1679;SDS011;838;51.794;12.258;2022-07-22T01:48:57;4.60;;;3.23;;
1679;SDS011;838;51.794;12.258;2022-07-22T01:51:23;6.10;;;3.80;;
1679;SDS011;838;51.794;12.258;2022-07-22T01:53:49;4.93;;;4.10;;
1679;SDS011;838;51.794;12.258;2022-07-22T01:56:14;5.93;;;3.67;;
1679;SDS011;838;51.794;12.258;2022-07-22T01:58:40;4.40;;;3.90;;
1679;SDS011;838;51.794;12.258;2022-07-22T02:01:06;4.47;;;3.67;;
1679;SDS011;838;51.794;12.258;2022-07-22T02:03:32;6.13;;;4.00;;
1679;SDS011;838;51.794;12.258;2022-07-22T02:05:58;6.77;;;3.60;;
1679;SDS011;838;51.794;12.258;2022-07-22T02:08:24;5.00;;;4.30;;
1679;SDS011;838;51.794;12.258;2022-07-22T02:10:49;5.00;;;4.50;;
1679;SDS011;838;51.794;12.258;2022-07-22T02:13:15;4.20;;;3.67;;
1679;SDS011;838;51.794;12.258;2022-07-22T02:15:41;5.90;;;3.93;;
1679;SDS011;838;51.794;12.258;2022-07-22T02:18:12;4.30;;;3.40;;
1679;SDS011;838;51.794;12.258;2022-07-22T02:20:39;5.57;;;3.80;;
1679;SDS011;838;51.794;12.258;2022-07-22T02:23:09;6.87;;;3.83;;
1679;SDS011;838;51.794;12.258;2022-07-22T02:25:39;4.60;;;4.10;;
1679;SDS011;838;51.794;12.258;2022-07-22T02:28:06;5.87;;;4.00;;
1679;SDS011;838;51.794;12.258;2022-07-22T02:30:32;4.40;;;4.00;;
1679;SDS011;838;51.794;12.258;2022-07-22T02:32:59;4.70;;;4.00;;
1679;SDS011;838;51.794;12.258;2022-07-22T02:35:24;5.00;;;4.40;;
1679;SDS011;838;51.794;12.258;2022-07-22T02:37:50;5.63;;;4.50;;
1679;SDS011;838;51.794;12.258;2022-07-22T02:40:17;4.47;;;3.70;;
1679;SDS011;838;51.794;12.258;2022-07-22T02:42:43;7.00;;;4.97;;
1679;SDS011;838;51.794;12.258;2022-07-22T02:45:10;6.80;;;4.80;;
1679;SDS011;838;51.794;12.258;2022-07-22T02:47:46;6.00;;;4.90;;
1679;SDS011;838;51.794;12.258;2022-07-22T02:50:14;6.33;;;4.80;;
1679;SDS011;838;51.794;12.258;2022-07-22T02:52:40;7.17;;;4.80;;
1679;SDS011;838;51.794;12.258;2022-07-22T02:55:06;5.77;;;4.67;;
1679;SDS011;838;51.794;12.258;2022-07-22T02:57:32;7.00;;;5.20;;
1679;SDS011;838;51.794;12.258;2022-07-22T02:59:59;6.80;;;4.93;;
1679;SDS011;838;51.794;12.258;2022-07-22T03:02:24;5.27;;;4.77;;
1679;SDS011;838;51.794;12.258;2022-07-22T03:04:50;7.10;;;5.27;;
1679;SDS011;838;51.794;12.258;2022-07-22T03:07:16;6.10;;;4.97;;
1679;SDS011;838;51.794;12.258;2022-07-22T03:09:42;6.30;;;5.60;;
1679;SDS011;838;51.794;12.258;2022-07-22T03:12:08;6.07;;;5.47;;
1679;SDS011;838;51.794;12.258;2022-07-22T03:14:34;7.60;;;5.17;;
1679;SDS011;838;51.794;12.258;2022-07-22T03:17:00;5.40;;;4.87;;
1679;SDS011;838;51.794;12.258;2022-07-22T03:19:25;5.57;;;5.07;;
1679;SDS011;838;51.794;12.258;2022-07-22T03:21:51;6.23;;;5.60;;
1679;SDS011;838;51.794;12.258;2022-07-22T03:24:17;7.00;;;5.57;;
1679;SDS011;838;51.794;12.258;2022-07-22T03:26:42;7.63;;;5.90;;
1679;SDS011;838;51.794;12.258;2022-07-22T03:29:08;6.97;;;6.27;;
1679;SDS011;838;51.794;12.258;2022-07-22T03:31:34;6.80;;;6.00;;
1679;SDS011;838;51.794;12.258;2022-07-22T03:33:59;7.13;;;6.43;;
1679;SDS011;838;51.794;12.258;2022-07-22T03:36:26;7.43;;;6.47;;
1679;SDS011;838;51.794;12.258;2022-07-22T03:38:54;7.33;;;6.63;;
1679;SDS011;838;51.794;12.258;2022-07-22T03:41:20;6.73;;;5.77;;
1679;SDS011;838;51.794;12.258;2022-07-22T03:43:46;7.77;;;6.80;;
1679;SDS011;838;51.794;12.258;2022-07-22T03:46:12;8.90;;;6.10;;
1679;SDS011;838;51.794;12.258;2022-07-22T03:48:38;8.63;;;6.70;;
1679;SDS011;838;51.794;12.258;2022-07-22T03:51:07;7.80;;;6.10;;
1679;SDS011;838;51.794;12.258;2022-07-22T03:53:33;5.87;;;5.17;;
1679;SDS011;838;51.794;12.258;2022-07-22T03:55:59;8.87;;;6.70;;
1679;SDS011;838;51.794;12.258;2022-07-22T03:58:25;7.27;;;6.57;;
1679;SDS011;838;51.794;12.258;2022-07-22T04:00:52;7.77;;;6.70;;
1679;SDS011;838;51.794;12.258;2022-07-22T04:03:19;8.23;;;6.20;;
1679;SDS011;838;51.794;12.258;2022-07-22T04:05:45;6.97;;;5.60;;
1679;SDS011;838;51.794;12.258;2022-07-22T04:08:11;6.60;;;5.90;;
1679;SDS011;838;51.794;12.258;2022-07-22T04:10:37;6.80;;;6.10;;
1679;SDS011;838;51.794;12.258;2022-07-22T04:13:03;6.47;;;5.87;;
1679;SDS011;838;51.794;12.258;2022-07-22T04:15:29;6.20;;;5.53;;
1679;SDS011;838;51.794;12.258;2022-07-22T04:17:55;10.47;;;5.90;;
1679;SDS011;838;51.794;12.258;2022-07-22T04:20:21;7.50;;;6.80;;
1679;SDS011;838;51.794;12.258;2022-07-22T04:22:47;6.40;;;5.60;;
1679;SDS011;838;51.794;12.258;2022-07-22T04:25:12;6.87;;;5.70;;
1679;SDS011;838;51.794;12.258;2022-07-22T04:27:39;6.97;;;5.50;;
1679;SDS011;838;51.794;12.258;2022-07-22T04:30:05;6.57;;;5.20;;
1679;SDS011;838;51.794;12.258;2022-07-22T04:32:31;8.40;;;5.37;;
1679;SDS011;838;51.794;12.258;2022-07-22T04:34:57;6.03;;;5.00;;
1679;SDS011;838;51.794;12.258;2022-07-22T04:37:23;5.57;;;4.83;;
1679;SDS011;838;51.794;12.258;2022-07-22T04:39:49;6.80;;;5.40;;
1679;SDS011;838;51.794;12.258;2022-07-22T04:42:14;5.90;;;4.60;;
1679;SDS011;838;51.794;12.258;2022-07-22T04:44:40;7.13;;;4.97;;
1679;SDS011;838;51.794;12.258;2022-07-22T04:47:06;5.63;;;4.63;;
1679;SDS011;838;51.794;12.258;2022-07-22T04:49:31;5.30;;;4.27;;
1679;SDS011;838;51.794;12.258;2022-07-22T04:51:57;5.27;;;4.50;;
1679;SDS011;838;51.794;12.258;2022-07-22T04:54:23;5.67;;;4.70;;
1679;SDS011;838;51.794;12.258;2022-07-22T04:56:49;5.20;;;4.00;;
1679;SDS011;838;51.794;12.258;2022-07-22T04:59:14;4.67;;;3.97;;
1679;SDS011;838;51.794;12.258;2022-07-22T05:01:40;4.93;;;3.93;;
1679;SDS011;838;51.794;12.258;2022-07-22T05:04:06;5.20;;;4.00;;
1679;SDS011;838;51.794;12.258;2022-07-22T05:06:31;5.20;;;4.03;;
1679;SDS011;838;51.794;12.258;2022-07-22T05:08:57;6.40;;;4.40;;
1679;SDS011;838;51.794;12.258;2022-07-22T05:11:23;5.23;;;3.87;;
1679;SDS011;838;51.794;12.258;2022-07-22T05:13:49;5.60;;;3.93;;
1679;SDS011;838;51.794;12.258;2022-07-22T05:16:14;4.40;;;3.50;;
1679;SDS011;838;51.794;12.258;2022-07-22T05:18:40;6.13;;;4.40;;
1679;SDS011;838;51.794;12.258;2022-07-22T05:21:06;5.20;;;3.90;;
1679;SDS011;838;51.794;12.258;2022-07-22T05:23:32;4.67;;;3.90;;
1679;SDS011;838;51.794;12.258;2022-07-22T05:25:58;5.30;;;3.50;;
1679;SDS011;838;51.794;12.258;2022-07-22T05:28:24;4.50;;;3.50;;
1679;SDS011;838;51.794;12.258;2022-07-22T05:30:49;5.23;;;3.67;;
1679;SDS011;838;51.794;12.258;2022-07-22T05:33:18;4.53;;;3.63;;
1679;SDS011;838;51.794;12.258;2022-07-22T05:35:44;5.07;;;3.60;;
1679;SDS011;838;51.794;12.258;2022-07-22T05:38:10;6.50;;;4.17;;
1679;SDS011;838;51.794;12.258;2022-07-22T05:40:36;5.67;;;3.10;;
1679;SDS011;838;51.794;12.258;2022-07-22T05:43:02;4.40;;;3.53;;
1679;SDS011;838;51.794;12.258;2022-07-22T05:45:29;4.10;;;3.40;;
1679;SDS011;838;51.794;12.258;2022-07-22T05:47:56;4.23;;;3.03;;
1679;SDS011;838;51.794;12.258;2022-07-22T05:50:22;4.63;;;3.33;;
1679;SDS011;838;51.794;12.258;2022-07-22T05:52:48;4.80;;;3.70;;
1679;SDS011;838;51.794;12.258;2022-07-22T05:55:17;4.50;;;3.30;;
1679;SDS011;838;51.794;12.258;2022-07-22T05:57:43;4.37;;;3.00;;
1679;SDS011;838;51.794;12.258;2022-07-22T06:00:09;4.27;;;3.10;;
1679;SDS011;838;51.794;12.258;2022-07-22T06:02:35;3.83;;;3.07;;
1679;SDS011;838;51.794;12.258;2022-07-22T06:05:04;4.60;;;2.87;;
1679;SDS011;838;51.794;12.258;2022-07-22T06:07:37;3.87;;;2.13;;
1679;SDS011;838;51.794;12.258;2022-07-22T06:10:02;6.50;;;3.10;;
1679;SDS011;838;51.794;12.258;2022-07-22T06:12:29;4.10;;;2.70;;
1679;SDS011;838;51.794;12.258;2022-07-22T06:14:58;5.80;;;2.43;;
1679;SDS011;838;51.794;12.258;2022-07-22T06:17:24;5.13;;;3.00;;
1679;SDS011;838;51.794;12.258;2022-07-22T06:19:51;8.33;;;3.30;;
1679;SDS011;838;51.794;12.258;2022-07-22T06:22:17;3.93;;;2.47;;
1679;SDS011;838;51.794;12.258;2022-07-22T06:24:43;3.83;;;2.40;;
1679;SDS011;838;51.794;12.258;2022-07-22T06:27:09;6.03;;;2.20;;
1679;SDS011;838;51.794;12.258;2022-07-22T06:29:35;3.43;;;2.20;;
1679;SDS011;838;51.794;12.258;2022-07-22T06:32:05;3.93;;;2.30;;
1679;SDS011;838;51.794;12.258;2022-07-22T06:34:31;4.20;;;2.67;;
1679;SDS011;838;51.794;12.258;2022-07-22T06:36:57;3.40;;;2.47;;
1679;SDS011;838;51.794;12.258;2022-07-22T06:39:22;3.50;;;2.33;;
1679;SDS011;838;51.794;12.258;2022-07-22T06:41:57;3.70;;;2.23;;
1679;SDS011;838;51.794;12.258;2022-07-22T06:44:23;4.30;;;1.90;;
1679;SDS011;838;51.794;12.258;2022-07-22T06:46:49;3.20;;;2.10;;
1679;SDS011;838;51.794;12.258;2022-07-22T06:49:15;5.43;;;2.20;;
1679;SDS011;838;51.794;12.258;2022-07-22T06:51:44;3.30;;;2.00;;
1679;SDS011;838;51.794;12.258;2022-07-22T06:54:09;2.73;;;1.97;;
1679;SDS011;838;51.794;12.258;2022-07-22T06:56:35;3.53;;;1.90;;
1679;SDS011;838;51.794;12.258;2022-07-22T06:59:01;4.20;;;2.07;;
1679;SDS011;838;51.794;12.258;2022-07-22T07:01:30;4.00;;;2.40;;
1679;SDS011;838;51.794;12.258;2022-07-22T07:03:56;3.50;;;1.87;;
1679;SDS011;838;51.794;12.258;2022-07-22T07:06:21;3.83;;;1.90;;
1679;SDS011;838;51.794;12.258;2022-07-22T07:08:47;3.50;;;2.07;;
1679;SDS011;838;51.794;12.258;2022-07-22T07:11:13;3.30;;;2.10;;
1679;SDS011;838;51.794;12.258;2022-07-22T07:13:42;4.10;;;1.47;;
1679;SDS011;838;51.794;12.258;2022-07-22T07:16:08;2.60;;;1.57;;
1679;SDS011;838;51.794;12.258;2022-07-22T07:18:34;4.03;;;2.03;;
1679;SDS011;838;51.794;12.258;2022-07-22T07:21:00;3.63;;;2.10;;
1679;SDS011;838;51.794;12.258;2022-07-22T07:23:25;2.87;;;1.77;;
1679;SDS011;838;51.794;12.258;2022-07-22T07:25:51;3.00;;;1.63;;
1679;SDS011;838;51.794;12.258;2022-07-22T07:28:17;3.80;;;2.00;;
1679;SDS011;838;51.794;12.258;2022-07-22T07:30:46;3.90;;;1.93;;
1679;SDS011;838;51.794;12.258;2022-07-22T07:33:15;2.47;;;1.53;;
1679;SDS011;838;51.794;12.258;2022-07-22T07:35:41;2.83;;;1.53;;
1679;SDS011;838;51.794;12.258;2022-07-22T07:38:10;2.93;;;1.73;;
1679;SDS011;838;51.794;12.258;2022-07-22T07:40:36;4.30;;;1.80;;
1679;SDS011;838;51.794;12.258;2022-07-22T07:43:03;3.70;;;1.97;;
1679;SDS011;838;51.794;12.258;2022-07-22T07:45:29;3.73;;;2.00;;
1679;SDS011;838;51.794;12.258;2022-07-22T07:47:55;5.10;;;2.17;;
1679;SDS011;838;51.794;12.258;2022-07-22T07:50:22;3.80;;;2.07;;
1679;SDS011;838;51.794;12.258;2022-07-22T07:52:47;4.47;;;2.40;;
1679;SDS011;838;51.794;12.258;2022-07-22T07:55:14;4.97;;;3.10;;
1679;SDS011;838;51.794;12.258;2022-07-22T07:57:39;4.20;;;2.90;;
1679;SDS011;838;51.794;12.258;2022-07-22T08:00:07;3.90;;;2.63;;
1679;SDS011;838;51.794;12.258;2022-07-22T08:02:34;4.60;;;3.00;;
1679;SDS011;838;51.794;12.258;2022-07-22T08:05:00;4.20;;;2.83;;
1679;SDS011;838;51.794;12.258;2022-07-22T08:07:26;4.43;;;2.53;;
1679;SDS011;838;51.794;12.258;2022-07-22T08:09:53;6.40;;;2.93;;
1679;SDS011;838;51.794;12.258;2022-07-22T08:12:20;4.80;;;3.00;;
1679;SDS011;838;51.794;12.258;2022-07-22T08:14:46;3.20;;;2.10;;
1679;SDS011;838;51.794;12.258;2022-07-22T08:17:12;5.90;;;2.30;;
1679;SDS011;838;51.794;12.258;2022-07-22T08:19:38;3.20;;;1.90;;
1679;SDS011;838;51.794;12.258;2022-07-22T08:22:03;3.50;;;2.03;;
1679;SDS011;838;51.794;12.258;2022-07-22T08:24:29;3.30;;;1.43;;
1679;SDS011;838;51.794;12.258;2022-07-22T08:26:55;2.93;;;1.57;;
1679;SDS011;838;51.794;12.258;2022-07-22T08:29:20;2.80;;;1.40;;
1679;SDS011;838;51.794;12.258;2022-07-22T08:31:46;2.40;;;1.20;;
1679;SDS011;838;51.794;12.258;2022-07-22T08:34:12;2.20;;;0.90;;
1679;SDS011;838;51.794;12.258;2022-07-22T08:36:38;2.40;;;1.17;;
1679;SDS011;838;51.794;12.258;2022-07-22T08:39:03;2.40;;;1.20;;
1679;SDS011;838;51.794;12.258;2022-07-22T08:41:33;2.23;;;1.07;;
1679;SDS011;838;51.794;12.258;2022-07-22T08:44:03;5.13;;;1.70;;
1679;SDS011;838;51.794;12.258;2022-07-22T08:46:30;2.87;;;1.40;;
1679;SDS011;838;51.794;12.258;2022-07-22T08:48:56;2.83;;;1.47;;
1679;SDS011;838;51.794;12.258;2022-07-22T08:51:23;2.60;;;1.40;;
1679;SDS011;838;51.794;12.258;2022-07-22T08:53:49;2.60;;;1.50;;
1679;SDS011;838;51.794;12.258;2022-07-22T08:56:15;3.17;;;1.60;;
1679;SDS011;838;51.794;12.258;2022-07-22T08:58:41;6.20;;;1.60;;
1679;SDS011;838;51.794;12.258;2022-07-22T09:01:14;2.80;;;1.53;;
1679;SDS011;838;51.794;12.258;2022-07-22T09:03:48;3.50;;;1.47;;
1679;SDS011;838;51.794;12.258;2022-07-22T09:06:19;2.27;;;1.10;;
1679;SDS011;838;51.794;12.258;2022-07-22T09:08:53;2.40;;;1.47;;
1679;SDS011;838;51.794;12.258;2022-07-22T09:11:23;2.67;;;1.20;;
1679;SDS011;838;51.794;12.258;2022-07-22T09:13:51;2.70;;;1.37;;
1679;SDS011;838;51.794;12.258;2022-07-22T09:16:37;3.50;;;1.30;;
1679;SDS011;838;51.794;12.258;2022-07-22T09:19:11;4.17;;;1.53;;
1679;SDS011;838;51.794;12.258;2022-07-22T09:21:39;4.20;;;1.97;;
1679;SDS011;838;51.794;12.258;2022-07-22T09:24:06;2.70;;;1.40;;
1679;SDS011;838;51.794;12.258;2022-07-22T09:26:37;2.97;;;1.37;;
1679;SDS011;838;51.794;12.258;2022-07-22T09:29:05;2.47;;;1.33;;
1679;SDS011;838;51.794;12.258;2022-07-22T09:31:34;2.60;;;1.30;;
1679;SDS011;838;51.794;12.258;2022-07-22T09:34:02;2.90;;;1.80;;
1679;SDS011;838;51.794;12.258;2022-07-22T09:36:28;2.63;;;1.17;;
1679;SDS011;838;51.794;12.258;2022-07-22T09:38:55;2.90;;;1.80;;
1679;SDS011;838;51.794;12.258;2022-07-22T09:41:22;3.63;;;2.10;;
1679;SDS011;838;51.794;12.258;2022-07-22T09:43:50;2.90;;;1.80;;
1679;SDS011;838;51.794;12.258;2022-07-22T09:46:16;4.63;;;2.30;;
1679;SDS011;838;51.794;12.258;2022-07-22T09:48:57;3.33;;;2.20;;
1679;SDS011;838;51.794;12.258;2022-07-22T09:51:23;3.50;;;2.00;;
1679;SDS011;838;51.794;12.258;2022-07-22T09:53:49;3.57;;;2.10;;
1679;SDS011;838;51.794;12.258;2022-07-22T09:56:17;3.40;;;2.47;;
1679;SDS011;838;51.794;12.258;2022-07-22T09:58:43;3.00;;;2.17;;
1679;SDS011;838;51.794;12.258;2022-07-22T10:01:11;5.47;;;3.00;;
1679;SDS011;838;51.794;12.258;2022-07-22T10:03:37;4.60;;;2.63;;
1679;SDS011;838;51.794;12.258;2022-07-22T10:06:07;4.10;;;3.17;;
1679;SDS011;838;51.794;12.258;2022-07-22T10:08:35;3.67;;;2.77;;
1679;SDS011;838;51.794;12.258;2022-07-22T10:11:03;3.43;;;2.60;;
1679;SDS011;838;51.794;12.258;2022-07-22T10:13:31;3.80;;;2.37;;
1679;SDS011;838;51.794;12.258;2022-07-22T10:15:57;3.73;;;2.50;;
1679;SDS011;838;51.794;12.258;2022-07-22T10:18:23;3.40;;;2.37;;
1679;SDS011;838;51.794;12.258;2022-07-22T10:21:01;3.30;;;2.37;;
1679;SDS011;838;51.794;12.258;2022-07-22T10:23:31;3.70;;;2.60;;
1679;SDS011;838;51.794;12.258;2022-07-22T10:26:00;3.20;;;2.10;;
1679;SDS011;838;51.794;12.258;2022-07-22T10:28:33;2.97;;;2.33;;
1679;SDS011;838;51.794;12.258;2022-07-22T10:31:20;2.70;;;2.10;;
1679;SDS011;838;51.794;12.258;2022-07-22T10:34:06;3.57;;;2.50;;
1679;SDS011;838;51.794;12.258;2022-07-22T10:36:35;2.93;;;2.00;;
1679;SDS011;838;51.794;12.258;2022-07-22T10:41:35;3.40;;;2.47;;
1679;SDS011;838;51.794;12.258;2022-07-22T10:44:03;3.30;;;2.67;;
1679;SDS011;838;51.794;12.258;2022-07-22T10:49:29;3.67;;;2.67;;
1679;SDS011;838;51.794;12.258;2022-07-22T10:54:33;3.40;;;2.03;;
1679;SDS011;838;51.794;12.258;2022-07-22T10:56:59;3.50;;;2.63;;
1679;SDS011;838;51.794;12.258;2022-07-22T10:59:25;4.00;;;2.90;;
1679;SDS011;838;51.794;12.258;2022-07-22T11:01:51;5.20;;;3.50;;
1679;SDS011;838;51.794;12.258;2022-07-22T11:04:23;4.47;;;3.23;;
1679;SDS011;838;51.794;12.258;2022-07-22T11:06:51;4.70;;;3.57;;
1679;SDS011;838;51.794;12.258;2022-07-22T11:09:22;4.40;;;3.67;;
1679;SDS011;838;51.794;12.258;2022-07-22T11:11:56;5.50;;;3.80;;
1679;SDS011;838;51.794;12.258;2022-07-22T11:14:30;3.80;;;3.17;;
1679;SDS011;838;51.794;12.258;2022-07-22T11:16:59;3.50;;;3.00;;
1679;SDS011;838;51.794;12.258;2022-07-22T11:19:30;3.90;;;3.27;;
1679;SDS011;838;51.794;12.258;2022-07-22T11:22:11;3.27;;;2.97;;
1679;SDS011;838;51.794;12.258;2022-07-22T11:24:42;3.53;;;3.03;;
1679;SDS011;838;51.794;12.258;2022-07-22T11:27:15;4.20;;;3.80;;
1679;SDS011;838;51.794;12.258;2022-07-22T11:29:43;4.87;;;3.40;;
1679;SDS011;838;51.794;12.258;2022-07-22T11:32:14;3.70;;;3.20;;
1679;SDS011;838;51.794;12.258;2022-07-22T11:34:43;4.40;;;2.83;;
1679;SDS011;838;51.794;12.258;2022-07-22T11:37:12;3.63;;;2.67;;
1679;SDS011;838;51.794;12.258;2022-07-22T11:39:47;3.67;;;2.80;;
1679;SDS011;838;51.794;12.258;2022-07-22T11:42:14;3.27;;;2.77;;
1679;SDS011;838;51.794;12.258;2022-07-22T11:44:40;5.67;;;3.00;;
1679;SDS011;838;51.794;12.258;2022-07-22T11:47:14;4.43;;;2.53;;
1679;SDS011;838;51.794;12.258;2022-07-22T11:49:45;5.00;;;2.90;;
1679;SDS011;838;51.794;12.258;2022-07-22T11:52:13;4.20;;;2.77;;
1679;SDS011;838;51.794;12.258;2022-07-22T11:54:42;3.47;;;2.80;;
1679;SDS011;838;51.794;12.258;2022-07-22T11:57:12;3.77;;;3.00;;
1679;SDS011;838;51.794;12.258;2022-07-22T11:59:41;4.40;;;3.30;;
1679;SDS011;838;51.794;12.258;2022-07-22T12:02:16;3.47;;;3.00;;
1679;SDS011;838;51.794;12.258;2022-07-22T12:04:42;4.10;;;3.37;;
1679;SDS011;838;51.794;12.258;2022-07-22T12:07:17;4.23;;;3.50;;
1679;SDS011;838;51.794;12.258;2022-07-22T12:09:45;3.87;;;2.93;;
1679;SDS011;838;51.794;12.258;2022-07-22T12:12:11;3.47;;;2.80;;
1679;SDS011;838;51.794;12.258;2022-07-22T12:14:43;3.70;;;2.50;;
1679;SDS011;838;51.794;12.258;2022-07-22T12:17:11;3.50;;;2.70;;
1679;SDS011;838;51.794;12.258;2022-07-22T12:19:37;3.07;;;2.53;;
1679;SDS011;838;51.794;12.258;2022-07-22T12:22:08;3.90;;;3.50;;
1679;SDS011;838;51.794;12.258;2022-07-22T12:24:42;3.80;;;2.70;;
1679;SDS011;838;51.794;12.258;2022-07-22T12:27:15;3.60;;;2.77;;
1679;SDS011;838;51.794;12.258;2022-07-22T12:29:43;4.50;;;3.00;;
1679;SDS011;838;51.794;12.258;2022-07-22T12:32:14;3.47;;;2.67;;
1679;SDS011;838;51.794;12.258;2022-07-22T12:35:03;3.30;;;2.60;;
1679;SDS011;838;51.794;12.258;2022-07-22T12:37:33;3.40;;;2.87;;
1679;SDS011;838;51.794;12.258;2022-07-22T12:40:10;3.73;;;3.20;;
1679;SDS011;838;51.794;12.258;2022-07-22T12:42:44;3.63;;;2.77;;
1679;SDS011;838;51.794;12.258;2022-07-22T12:45:16;3.30;;;3.00;;
1679;SDS011;838;51.794;12.258;2022-07-22T12:47:53;4.27;;;3.53;;
1679;SDS011;838;51.794;12.258;2022-07-22T12:50:35;3.43;;;3.13;;
1679;SDS011;838;51.794;12.258;2022-07-22T12:53:09;4.73;;;3.70;;
1679;SDS011;838;51.794;12.258;2022-07-22T12:55:41;4.13;;;2.80;;
1679;SDS011;838;51.794;12.258;2022-07-22T12:58:08;3.20;;;2.90;;
1679;SDS011;838;51.794;12.258;2022-07-22T13:00:36;4.10;;;3.70;;
1679;SDS011;838;51.794;12.258;2022-07-22T13:03:05;3.47;;;3.13;;
1679;SDS011;838;51.794;12.258;2022-07-22T13:05:31;3.40;;;2.97;;
1679;SDS011;838;51.794;12.258;2022-07-22T13:07:57;5.30;;;3.37;;
1679;SDS011;838;51.794;12.258;2022-07-22T13:10:23;5.03;;;3.10;;
1679;SDS011;838;51.794;12.258;2022-07-22T13:12:50;3.40;;;3.03;;
1679;SDS011;838;51.794;12.258;2022-07-22T13:15:17;3.00;;;2.70;;
1679;SDS011;838;51.794;12.258;2022-07-22T13:17:43;4.03;;;2.90;;
1679;SDS011;838;51.794;12.258;2022-07-22T13:20:09;3.43;;;2.50;;
1679;SDS011;838;51.794;12.258;2022-07-22T13:22:38;2.60;;;2.13;;
1679;SDS011;838;51.794;12.258;2022-07-22T13:25:04;2.63;;;1.70;;
1679;SDS011;838;51.794;12.258;2022-07-22T13:27:30;3.30;;;2.20;;
1679;SDS011;838;51.794;12.258;2022-07-22T13:29:56;2.53;;;2.03;;
1679;SDS011;838;51.794;12.258;2022-07-22T13:32:25;4.00;;;2.17;;
1679;SDS011;838;51.794;12.258;2022-07-22T13:34:51;3.13;;;2.10;;
1679;SDS011;838;51.794;12.258;2022-07-22T13:37:21;3.00;;;2.40;;
1679;SDS011;838;51.794;12.258;2022-07-22T13:39:47;3.53;;;2.40;;
1679;SDS011;838;51.794;12.258;2022-07-22T13:42:14;3.63;;;2.20;;
1679;SDS011;838;51.794;12.258;2022-07-22T13:44:43;2.70;;;2.30;;
1679;SDS011;838;51.794;12.258;2022-07-22T13:47:12;2.80;;;2.03;;
1679;SDS011;838;51.794;12.258;2022-07-22T13:49:38;4.63;;;2.63;;
1679;SDS011;838;51.794;12.258;2022-07-22T13:52:04;3.10;;;2.00;;
1679;SDS011;838;51.794;12.258;2022-07-22T13:54:30;3.20;;;2.20;;
1679;SDS011;838;51.794;12.258;2022-07-22T13:56:58;2.60;;;2.30;;
1679;SDS011;838;51.794;12.258;2022-07-22T13:59:24;3.53;;;2.30;;
1679;SDS011;838;51.794;12.258;2022-07-22T14:01:51;3.10;;;2.40;;
1679;SDS011;838;51.794;12.258;2022-07-22T14:04:17;3.00;;;2.23;;
1679;SDS011;838;51.794;12.258;2022-07-22T14:06:46;4.20;;;2.90;;
1679;SDS011;838;51.794;12.258;2022-07-22T14:09:12;4.10;;;2.60;;
1679;SDS011;838;51.794;12.258;2022-07-22T14:11:40;3.53;;;2.47;;
1679;SDS011;838;51.794;12.258;2022-07-22T14:14:09;3.80;;;2.90;;
1679;SDS011;838;51.794;12.258;2022-07-22T14:16:48;3.30;;;2.87;;
1679;SDS011;838;51.794;12.258;2022-07-22T14:19:15;4.00;;;2.60;;
1679;SDS011;838;51.794;12.258;2022-07-22T14:21:42;4.17;;;2.60;;
1679;SDS011;838;51.794;12.258;2022-07-22T14:24:09;5.00;;;2.63;;
1679;SDS011;838;51.794;12.258;2022-07-22T14:26:35;2.80;;;2.40;;
1679;SDS011;838;51.794;12.258;2022-07-22T14:29:02;5.40;;;2.93;;
1679;SDS011;838;51.794;12.258;2022-07-22T14:31:29;3.40;;;2.60;;
1679;SDS011;838;51.794;12.258;2022-07-22T14:33:56;5.30;;;2.97;;
1679;SDS011;838;51.794;12.258;2022-07-22T14:36:22;3.77;;;2.77;;
1679;SDS011;838;51.794;12.258;2022-07-22T14:38:48;3.23;;;2.90;;
1679;SDS011;838;51.794;12.258;2022-07-22T14:41:18;5.40;;;3.27;;
1679;SDS011;838;51.794;12.258;2022-07-22T14:43:47;3.60;;;2.93;;
1679;SDS011;838;51.794;12.258;2022-07-22T14:46:15;3.37;;;3.07;;
1679;SDS011;838;51.794;12.258;2022-07-22T14:48:41;3.50;;;3.10;;
1679;SDS011;838;51.794;12.258;2022-07-22T14:51:07;3.37;;;2.83;;
1679;SDS011;838;51.794;12.258;2022-07-22T14:53:33;3.50;;;3.20;;
1679;SDS011;838;51.794;12.258;2022-07-22T14:56:07;3.50;;;3.00;;
1679;SDS011;838;51.794;12.258;2022-07-22T14:58:33;4.37;;;3.00;;
1679;SDS011;838;51.794;12.258;2022-07-22T15:00:59;4.07;;;3.00;;
1679;SDS011;838;51.794;12.258;2022-07-22T15:03:30;3.53;;;3.23;;
1679;SDS011;838;51.794;12.258;2022-07-22T15:05:56;4.10;;;3.60;;
1679;SDS011;838;51.794;12.258;2022-07-22T15:08:22;3.63;;;3.27;;
1679;SDS011;838;51.794;12.258;2022-07-22T15:11:08;4.73;;;4.33;;
1679;SDS011;838;51.794;12.258;2022-07-22T15:13:34;3.97;;;3.60;;
1679;SDS011;838;51.794;12.258;2022-07-22T15:16:00;3.80;;;3.40;;
1679;SDS011;838;51.794;12.258;2022-07-22T15:18:26;4.40;;;4.00;;
1679;SDS011;838;51.794;12.258;2022-07-22T15:20:52;3.67;;;3.27;;
1679;SDS011;838;51.794;12.258;2022-07-22T15:23:24;3.30;;;3.00;;
1679;SDS011;838;51.794;12.258;2022-07-22T15:25:55;3.47;;;3.10;;